Time;durP1;ratioP1;P1;durP2;ratioP2;P2;SDS_P1;SDS_P2;PMS_P1;PMS_P2;Temp;Humidity;BMP_temperature;BMP_pressure;BME280_temperature;BME280_humidity;BME280_pressure;Samples;Min_cycle;Max_cycle;Signal;HPM_P1;HPM_P2
2023/12/17 00:02:09;;;;;;;33.80;16.60;;;;;;;;;;106987;1253;61151;-81
2023/12/17 00:04:35;;;;;;;27.90;14.30;;;;;;;;;;106824;1253;62071;-80
2023/12/17 00:07:02;;;;;;;34.90;17.30;;;;;;;;;;108755;1251;59133;-80
2023/12/17 00:09:28;;;;;;;37.40;17.00;;;;;;;;;;109518;1253;58790;-80
2023/12/17 00:11:55;;;;;;;45.90;20.40;;;;;;;;;;109463;1253;59008;-80
2023/12/17 00:14:21;;;;;;;37.40;18.60;;;;;;;;;;109190;1253;59765;-80
2023/12/17 00:16:48;;;;;;;23.80;13.00;;;;;;;;;;106879;1253;60876;-80
2023/12/17 00:19:14;;;;;;;32.20;15.00;;;;;;;;;;106888;1255;59775;-80
2023/12/17 00:21:41;;;;;;;23.00;12.60;;;;;;;;;;106965;1253;59224;-80
2023/12/17 00:24:07;;;;;;;23.60;11.10;;;;;;;;;;106999;1254;60713;-80
2023/12/17 00:26:33;;;;;;;23.60;11.80;;;;;;;;;;107055;1253;59843;-80
2023/12/17 00:29:00;;;;;;;19.50;10.00;;;;;;;;;;107026;1255;59825;-80
2023/12/17 00:31:26;;;;;;;20.30;9.90;;;;;;;;;;107034;1253;59839;-80
2023/12/17 00:33:53;;;;;;;18.00;9.80;;;;;;;;;;107000;1255;59878;-80
2023/12/17 00:36:19;;;;;;;21.50;11.20;;;;;;;;;;107030;1251;60748;-80
2023/12/17 00:38:46;;;;;;;24.30;11.80;;;;;;;;;;107045;1256;59815;-80
2023/12/17 00:41:13;;;;;;;27.60;10.20;;;;;;;;;;106969;1253;59796;-80
2023/12/17 00:43:39;;;;;;;19.20;10.10;;;;;;;;;;109573;1251;58853;-80
2023/12/17 00:46:06;;;;;;;17.80;10.80;;;;;;;;;;109584;1251;58925;-80
2023/12/17 00:48:32;;;;;;;22.40;9.30;;;;;;;;;;109547;1250;59116;-80
2023/12/17 00:50:59;;;;;;;21.40;9.80;;;;;;;;;;109544;1250;59210;-80
2023/12/17 00:53:25;;;;;;;16.70;9.60;;;;;;;;;;109597;1251;58953;-80
2023/12/17 00:55:52;;;;;;;20.70;9.60;;;;;;;;;;109546;1251;59062;-80
2023/12/17 00:58:18;;;;;;;15.20;7.30;;;;;;;;;;109559;1252;59529;-80
2023/12/17 01:00:45;;;;;;;23.60;11.50;;;;;;;;;;109117;1253;59075;-80
2023/12/17 01:03:11;;;;;;;19.10;10.60;;;;;;;;;;107971;1257;59307;-80
2023/12/17 01:05:37;;;;;;;20.10;8.50;;;;;;;;;;109486;1253;58818;-80
2023/12/17 01:08:04;;;;;;;14.30;9.00;;;;;;;;;;109511;1255;59075;-80
2023/12/17 01:10:30;;;;;;;15.90;9.00;;;;;;;;;;109493;1253;59131;-80
2023/12/17 01:12:57;;;;;;;19.10;9.10;;;;;;;;;;109453;1253;59131;-80
2023/12/17 01:15:24;;;;;;;18.80;8.60;;;;;;;;;;107038;1256;61205;-80
2023/12/17 01:17:50;;;;;;;14.90;8.90;;;;;;;;;;106829;1255;61012;-80
2023/12/17 01:20:16;;;;;;;18.10;10.20;;;;;;;;;;106833;1256;59844;-80
2023/12/17 01:22:43;;;;;;;25.50;13.50;;;;;;;;;;106897;1251;59660;-80
2023/12/17 01:25:10;;;;;;;18.00;9.70;;;;;;;;;;106961;1256;61638;-80
2023/12/17 01:27:37;;;;;;;27.30;13.60;;;;;;;;;;106972;1255;59223;-80
2023/12/17 01:30:04;;;;;;;32.70;16.80;;;;;;;;;;106919;1251;60796;-80
2023/12/17 01:32:31;;;;;;;27.90;16.40;;;;;;;;;;109574;1251;62910;-80
2023/12/17 01:34:57;;;;;;;30.50;17.60;;;;;;;;;;109589;1251;59119;-80
2023/12/17 01:37:24;;;;;;;30.30;15.70;;;;;;;;;;109551;1251;58823;-80
2023/12/17 01:39:50;;;;;;;31.60;18.40;;;;;;;;;;109574;1251;59039;-80
2023/12/17 01:42:17;;;;;;;42.80;23.60;;;;;;;;;;109610;1251;58799;-80
2023/12/17 01:44:43;;;;;;;40.10;23.90;;;;;;;;;;109631;1251;59228;-80
2023/12/17 01:47:10;;;;;;;37.30;24.70;;;;;;;;;;107897;1253;59667;-80
2023/12/17 01:49:36;;;;;;;38.30;25.10;;;;;;;;;;106994;1255;60631;-80
2023/12/17 01:52:03;;;;;;;37.50;22.90;;;;;;;;;;107013;1251;59494;-80
2023/12/17 01:54:29;;;;;;;44.70;24.30;;;;;;;;;;107022;1251;59755;-80
2023/12/17 01:56:56;;;;;;;38.20;22.90;;;;;;;;;;107041;1251;59740;-80
2023/12/17 01:59:22;;;;;;;43.50;23.70;;;;;;;;;;106890;1256;60730;-80
2023/12/17 02:01:49;;;;;;;46.40;25.60;;;;;;;;;;106831;1256;59998;-80
2023/12/17 02:04:15;;;;;;;40.00;22.40;;;;;;;;;;106791;1254;61992;-80
2023/12/17 02:06:41;;;;;;;44.80;25.00;;;;;;;;;;106917;1254;62025;-80
2023/12/17 02:09:08;;;;;;;47.40;21.90;;;;;;;;;;106935;1254;59748;-80
2023/12/17 02:11:35;;;;;;;45.10;24.10;;;;;;;;;;106983;1253;60814;-80
2023/12/17 02:14:01;;;;;;;25.10;13.90;;;;;;;;;;107005;1255;60814;-80
2023/12/17 02:16:27;;;;;;;29.40;14.60;;;;;;;;;;106887;1251;62128;-79
2023/12/17 02:18:56;;;;;;;22.90;13.70;;;;;;;;;;106915;1255;60888;-80
2023/12/17 02:21:23;;;;;;;21.40;14.40;;;;;;;;;;106887;1253;62546;-80
2023/12/17 02:23:49;;;;;;;28.20;14.70;;;;;;;;;;106968;1251;59819;-80
2023/12/17 02:26:17;;;;;;;35.10;16.60;;;;;;;;;;107001;1254;60752;-80
2023/12/17 02:28:45;;;;;;;31.60;19.80;;;;;;;;;;106944;1256;59801;-80
2023/12/17 02:31:11;;;;;;;27.90;18.30;;;;;;;;;;108222;1251;60955;-80
2023/12/17 02:33:38;;;;;;;27.70;15.20;;;;;;;;;;107976;1251;59686;-80
2023/12/17 02:36:04;;;;;;;30.80;17.30;;;;;;;;;;106962;1257;60736;-80
2023/12/17 02:38:31;;;;;;;35.30;18.80;;;;;;;;;;109554;1251;59823;-80
2023/12/17 02:40:58;;;;;;;42.50;24.20;;;;;;;;;;109552;1251;59229;-80
2023/12/17 02:43:24;;;;;;;34.40;22.30;;;;;;;;;;109599;1251;58919;-80
2023/12/17 02:45:51;;;;;;;42.00;24.80;;;;;;;;;;109572;1251;60760;-80
2023/12/17 02:48:17;;;;;;;41.00;24.90;;;;;;;;;;107863;1251;62035;-80
2023/12/17 02:50:43;;;;;;;35.70;22.40;;;;;;;;;;106960;1254;59810;-79
2023/12/17 02:53:10;;;;;;;43.40;25.10;;;;;;;;;;107010;1250;59799;-79
2023/12/17 02:55:36;;;;;;;39.50;26.20;;;;;;;;;;107050;1251;59824;-80
2023/12/17 02:58:04;;;;;;;49.60;30.90;;;;;;;;;;106972;1251;60934;-80
2023/12/17 03:00:30;;;;;;;43.80;27.40;;;;;;;;;;106926;1254;59765;-80
2023/12/17 03:02:57;;;;;;;37.90;28.00;;;;;;;;;;106891;1256;60888;-80
2023/12/17 03:05:23;;;;;;;40.60;26.70;;;;;;;;;;106925;1252;60859;-79
2023/12/17 03:07:50;;;;;;;39.40;26.90;;;;;;;;;;106912;1257;60932;-80
2023/12/17 03:10:16;;;;;;;42.40;24.20;;;;;;;;;;107572;1251;60819;-80
2023/12/17 03:12:43;;;;;;;35.80;22.50;;;;;;;;;;106961;1254;60733;-80
2023/12/17 03:15:10;;;;;;;27.90;19.20;;;;;;;;;;107039;1251;60962;-79
2023/12/17 03:17:36;;;;;;;29.50;18.80;;;;;;;;;;107038;1251;60707;-80
2023/12/17 03:20:04;;;;;;;32.70;18.50;;;;;;;;;;107022;1251;59551;-80
2023/12/17 03:22:31;;;;;;;30.60;15.70;;;;;;;;;;107097;1251;61634;-80
2023/12/17 03:24:58;;;;;;;27.10;14.00;;;;;;;;;;107035;1250;60745;-80
2023/12/17 03:27:25;;;;;;;44.50;27.10;;;;;;;;;;107000;1251;61986;-80
2023/12/17 03:29:52;;;;;;;57.20;37.90;;;;;;;;;;106984;1251;59707;-79
2023/12/17 03:32:19;;;;;;;42.00;29.40;;;;;;;;;;106934;1251;61595;-79
2023/12/17 03:34:46;;;;;;;42.90;23.20;;;;;;;;;;107007;1251;61876;-80
2023/12/17 03:37:13;;;;;;;38.90;22.00;;;;;;;;;;106960;1251;61178;-80
2023/12/17 03:39:39;;;;;;;42.10;23.70;;;;;;;;;;106980;1251;59885;-80
2023/12/17 03:42:05;;;;;;;42.70;23.50;;;;;;;;;;106951;1251;59812;-80
2023/12/17 03:44:33;;;;;;;47.30;30.50;;;;;;;;;;107008;1251;59747;-80
2023/12/17 03:47:00;;;;;;;41.80;23.00;;;;;;;;;;107008;1251;62608;-80
2023/12/17 03:49:26;;;;;;;51.00;27.10;;;;;;;;;;106966;1256;60841;-80
2023/12/17 03:51:53;;;;;;;43.90;24.50;;;;;;;;;;106975;1254;60869;-80
2023/12/17 03:54:19;;;;;;;43.10;27.90;;;;;;;;;;107004;1251;59745;-80
2023/12/17 03:56:46;;;;;;;61.60;37.70;;;;;;;;;;107047;1251;60746;-80
2023/12/17 03:59:13;;;;;;;45.40;31.00;;;;;;;;;;106981;1252;61777;-80
2023/12/17 04:01:44;;;;;;;51.90;33.10;;;;;;;;;;107044;1254;59781;-80
2023/12/17 04:04:10;;;;;;;47.40;29.00;;;;;;;;;;107010;1253;59894;-80
2023/12/17 04:06:37;;;;;;;49.80;30.30;;;;;;;;;;106973;1253;60054;-80
2023/12/17 04:09:04;;;;;;;44.10;30.00;;;;;;;;;;106887;1252;59868;-80
2023/12/17 04:11:30;;;;;;;41.80;24.10;;;;;;;;;;106932;1254;61754;-79
2023/12/17 04:13:57;;;;;;;40.30;23.50;;;;;;;;;;106993;1254;59674;-80
2023/12/17 04:16:23;;;;;;;38.90;24.00;;;;;;;;;;106900;1253;60787;-80
2023/12/17 04:18:50;;;;;;;32.30;18.60;;;;;;;;;;109463;1252;59195;-80
2023/12/17 04:21:16;;;;;;;28.00;17.90;;;;;;;;;;109481;1253;58900;-80
2023/12/17 04:23:44;;;;;;;22.90;15.70;;;;;;;;;;107494;1251;60842;-79
2023/12/17 04:26:11;;;;;;;28.40;15.50;;;;;;;;;;107005;1251;60878;-79
2023/12/17 04:28:37;;;;;;;24.70;15.10;;;;;;;;;;107022;1251;59916;-79
2023/12/17 04:31:04;;;;;;;23.90;15.60;;;;;;;;;;107002;1251;60945;-80
2023/12/17 04:33:31;;;;;;;25.60;15.10;;;;;;;;;;107030;1251;59730;-80
2023/12/17 04:35:57;;;;;;;28.50;14.30;;;;;;;;;;107000;1251;61576;-80
2023/12/17 04:38:24;;;;;;;24.10;14.40;;;;;;;;;;106954;1251;59140;-80
2023/12/17 04:40:50;;;;;;;34.10;21.00;;;;;;;;;;107051;1251;59780;-80
2023/12/17 04:43:17;;;;;;;27.80;17.60;;;;;;;;;;107038;1250;60871;-80
2023/12/17 04:45:43;;;;;;;29.00;16.50;;;;;;;;;;106992;1251;60796;-79
2023/12/17 04:48:10;;;;;;;24.30;14.80;;;;;;;;;;107003;1251;59764;-80
2023/12/17 04:50:36;;;;;;;21.50;13.60;;;;;;;;;;106885;1254;59755;-79
2023/12/17 04:53:03;;;;;;;20.40;12.30;;;;;;;;;;106980;1251;59252;-80
2023/12/17 04:55:29;;;;;;;22.70;11.90;;;;;;;;;;106974;1251;60890;-80
2023/12/17 04:57:55;;;;;;;26.50;18.90;;;;;;;;;;107006;1252;59787;-79
2023/12/17 05:00:22;;;;;;;22.90;15.20;;;;;;;;;;106925;1255;60881;-80
2023/12/17 05:02:48;;;;;;;19.20;10.70;;;;;;;;;;108131;1251;59813;-80
2023/12/17 05:05:15;;;;;;;21.70;12.20;;;;;;;;;;109507;1251;58798;-80
2023/12/17 05:07:41;;;;;;;17.10;9.50;;;;;;;;;;109460;1255;59080;-80
2023/12/17 05:10:08;;;;;;;18.10;10.90;;;;;;;;;;108413;1251;59911;-80
2023/12/17 05:12:34;;;;;;;15.00;8.80;;;;;;;;;;106974;1251;59747;-80
2023/12/17 05:15:01;;;;;;;17.20;9.80;;;;;;;;;;106962;1251;60868;-80
2023/12/17 05:17:27;;;;;;;24.70;13.90;;;;;;;;;;106912;1251;61017;-80
2023/12/17 05:19:54;;;;;;;26.00;12.90;;;;;;;;;;106919;1251;62153;-80
2023/12/17 05:22:20;;;;;;;20.20;13.60;;;;;;;;;;106972;1254;60878;-80
2023/12/17 05:24:48;;;;;;;15.40;9.40;;;;;;;;;;107011;1251;59924;-80
2023/12/17 05:27:15;;;;;;;24.50;10.40;;;;;;;;;;107006;1251;59814;-80
2023/12/17 05:29:41;;;;;;;17.30;9.90;;;;;;;;;;107513;1251;59952;-80
2023/12/17 05:32:08;;;;;;;28.20;20.00;;;;;;;;;;107643;1251;60591;-80
2023/12/17 05:34:34;;;;;;;32.20;21.20;;;;;;;;;;106983;1251;59758;-80
2023/12/17 05:37:00;;;;;;;16.30;10.80;;;;;;;;;;107017;1251;59821;-81
2023/12/17 05:39:27;;;;;;;22.00;13.90;;;;;;;;;;106954;1254;61260;-80
2023/12/17 05:41:53;;;;;;;21.60;11.20;;;;;;;;;;106979;1251;60978;-80
2023/12/17 05:44:20;;;;;;;12.20;6.90;;;;;;;;;;107440;1251;60923;-80
2023/12/17 05:46:46;;;;;;;19.90;14.10;;;;;;;;;;107478;1251;59788;-80
2023/12/17 05:49:13;;;;;;;16.10;9.90;;;;;;;;;;107541;1251;59177;-80
2023/12/17 05:51:43;;;;;;;23.80;11.40;;;;;;;;;;107442;1251;59837;-80
2023/12/17 05:54:11;;;;;;;23.60;17.60;;;;;;;;;;107471;1251;60958;-80
2023/12/17 05:56:39;;;;;;;19.70;12.90;;;;;;;;;;107521;1251;60800;-80
2023/12/17 05:59:05;;;;;;;12.40;7.60;;;;;;;;;;107485;1251;59208;-80
2023/12/17 06:01:31;;;;;;;17.40;9.60;;;;;;;;;;107521;1252;60792;-80
2023/12/17 06:03:58;;;;;;;18.00;9.00;;;;;;;;;;107499;1251;59175;-80
2023/12/17 06:06:24;;;;;;;12.80;8.30;;;;;;;;;;108946;1251;59706;-81
2023/12/17 06:08:51;;;;;;;13.80;7.80;;;;;;;;;;109509;1251;58907;-80
2023/12/17 06:11:17;;;;;;;15.70;8.50;;;;;;;;;;108369;1251;59861;-80
2023/12/17 06:13:44;;;;;;;14.80;8.20;;;;;;;;;;106892;1253;63020;-80
2023/12/17 06:16:11;;;;;;;16.80;9.50;;;;;;;;;;107018;1251;59838;-80
2023/12/17 06:18:38;;;;;;;20.00;10.00;;;;;;;;;;107013;1251;60818;-80
2023/12/17 06:21:05;;;;;;;17.30;8.90;;;;;;;;;;106941;1255;60019;-80
2023/12/17 06:23:31;;;;;;;16.60;8.90;;;;;;;;;;107019;1251;59738;-80
2023/12/17 06:25:58;;;;;;;16.50;9.00;;;;;;;;;;106968;1250;59852;-80
2023/12/17 06:28:25;;;;;;;19.50;9.30;;;;;;;;;;106990;1250;60859;-80
2023/12/17 06:30:51;;;;;;;14.60;8.40;;;;;;;;;;106981;1251;59747;-80
2023/12/17 06:33:18;;;;;;;16.50;8.60;;;;;;;;;;106942;1251;187678;-80
2023/12/17 06:35:45;;;;;;;12.30;7.10;;;;;;;;;;107108;1251;61030;-80
2023/12/17 06:38:11;;;;;;;20.30;8.50;;;;;;;;;;108723;1251;63041;-80
2023/12/17 06:40:37;;;;;;;18.60;10.10;;;;;;;;;;109554;1250;58874;-79
2023/12/17 06:43:04;;;;;;;17.40;9.70;;;;;;;;;;109552;1250;60697;-80
2023/12/17 06:45:31;;;;;;;15.10;8.20;;;;;;;;;;109540;1251;58793;-80
2023/12/17 06:47:57;;;;;;;19.60;11.70;;;;;;;;;;109557;1251;58801;-80
2023/12/17 06:50:24;;;;;;;13.60;9.50;;;;;;;;;;109584;1250;62900;-80
2023/12/17 06:52:50;;;;;;;23.50;13.80;;;;;;;;;;109562;1250;58858;-80
2023/12/17 06:55:17;;;;;;;20.40;12.70;;;;;;;;;;109541;1250;58778;-80
2023/12/17 06:57:47;;;;;;;31.40;18.00;;;;;;;;;;109533;1251;59214;-80
2023/12/17 07:00:17;;;;;;;20.30;11.80;;;;;;;;;;109498;1251;58989;-80
2023/12/17 07:02:44;;;;;;;25.80;15.10;;;;;;;;;;109486;1253;62135;-80
2023/12/17 07:05:11;;;;;;;25.70;13.20;;;;;;;;;;109475;1251;59009;-80
2023/12/17 07:07:37;;;;;;;24.90;16.10;;;;;;;;;;109550;1250;60706;-80
2023/12/17 07:10:06;;;;;;;27.20;15.30;;;;;;;;;;107991;1251;59773;-80
2023/12/17 07:12:32;;;;;;;27.40;15.60;;;;;;;;;;107001;1250;60664;-80
2023/12/17 07:14:59;;;;;;;27.80;15.20;;;;;;;;;;107489;1251;61940;-80
2023/12/17 07:17:25;;;;;;;25.10;13.70;;;;;;;;;;109518;1251;59108;-80
2023/12/17 07:19:52;;;;;;;24.10;13.20;;;;;;;;;;109545;1250;58839;-80
2023/12/17 07:22:22;;;;;;;25.10;13.70;;;;;;;;;;109534;1252;59169;-80
2023/12/17 07:24:49;;;;;;;23.20;14.10;;;;;;;;;;109567;1250;59052;-80
2023/12/17 07:27:15;;;;;;;17.60;11.20;;;;;;;;;;109554;1250;62838;-80
2023/12/17 07:29:42;;;;;;;34.30;19.20;;;;;;;;;;109563;1250;59212;-80
2023/12/17 07:32:09;;;;;;;36.10;21.10;;;;;;;;;;109556;1251;60454;-80
2023/12/17 07:34:35;;;;;;;37.90;20.40;;;;;;;;;;109557;1250;58895;-80
2023/12/17 07:37:02;;;;;;;34.50;19.70;;;;;;;;;;109574;1251;58833;-79
2023/12/17 07:39:28;;;;;;;21.60;13.10;;;;;;;;;;109573;1250;60811;-80
2023/12/17 07:41:55;;;;;;;44.70;22.80;;;;;;;;;;109536;1251;58895;-80
2023/12/17 07:44:21;;;;;;;32.10;18.50;;;;;;;;;;109544;1251;59267;-80
2023/12/17 07:46:48;;;;;;;27.90;17.20;;;;;;;;;;109540;1250;59080;-80
2023/12/17 07:49:14;;;;;;;26.00;14.20;;;;;;;;;;109564;1251;58879;-80
2023/12/17 07:51:41;;;;;;;29.40;17.50;;;;;;;;;;109546;1250;59091;-80
2023/12/17 07:54:07;;;;;;;35.80;20.50;;;;;;;;;;109551;1250;58977;-80
2023/12/17 07:56:34;;;;;;;43.30;26.60;;;;;;;;;;109574;1250;58869;-80
2023/12/17 07:59:00;;;;;;;27.30;16.60;;;;;;;;;;109480;1252;59048;-80
2023/12/17 08:01:27;;;;;;;29.60;15.30;;;;;;;;;;109525;1252;59203;-80
2023/12/17 08:03:53;;;;;;;44.40;22.00;;;;;;;;;;108600;1252;62315;-80
2023/12/17 08:06:20;;;;;;;63.00;30.30;;;;;;;;;;106876;1253;59786;-80
2023/12/17 08:08:46;;;;;;;75.90;37.20;;;;;;;;;;106902;1253;60748;-80
2023/12/17 08:11:13;;;;;;;67.10;29.80;;;;;;;;;;106923;1253;60842;-80
2023/12/17 08:13:39;;;;;;;99.10;39.00;;;;;;;;;;106995;1253;59831;-80
2023/12/17 08:16:06;;;;;;;109.50;40.40;;;;;;;;;;107527;1252;59842;-80
2023/12/17 08:18:32;;;;;;;85.70;32.50;;;;;;;;;;107623;1252;60800;-81
2023/12/17 08:20:59;;;;;;;56.00;20.80;;;;;;;;;;106973;1253;60593;-80
2023/12/17 08:23:25;;;;;;;57.00;20.00;;;;;;;;;;106997;1253;60884;-79
2023/12/17 08:25:52;;;;;;;80.50;33.10;;;;;;;;;;106951;1252;59787;-79
2023/12/17 08:28:21;;;;;;;53.30;19.80;;;;;;;;;;106922;1253;60955;-80
2023/12/17 08:30:48;;;;;;;50.40;22.80;;;;;;;;;;106950;1251;60915;-80
2023/12/17 08:33:15;;;;;;;40.50;16.10;;;;;;;;;;106988;1251;61600;-79
2023/12/17 08:35:43;;;;;;;27.30;14.40;;;;;;;;;;106977;1252;59763;-80
2023/12/17 08:38:10;;;;;;;27.40;15.90;;;;;;;;;;107039;1253;59844;-80
2023/12/17 08:40:37;;;;;;;38.10;17.10;;;;;;;;;;106935;1253;61942;-80
2023/12/17 08:43:04;;;;;;;38.00;19.10;;;;;;;;;;106981;1252;60848;-80
2023/12/17 08:45:30;;;;;;;41.80;22.50;;;;;;;;;;106972;1253;59792;-80
2023/12/17 08:47:57;;;;;;;30.50;15.90;;;;;;;;;;106917;1252;61036;-80
2023/12/17 08:50:23;;;;;;;29.50;14.80;;;;;;;;;;107500;1252;59095;-80
2023/12/17 08:52:50;;;;;;;22.90;11.70;;;;;;;;;;106988;1253;60855;-80
2023/12/17 08:55:16;;;;;;;19.40;10.50;;;;;;;;;;106974;1251;60853;-80
2023/12/17 08:57:43;;;;;;;19.80;10.20;;;;;;;;;;107060;1251;59872;-80
2023/12/17 09:00:09;;;;;;;36.00;17.30;;;;;;;;;;106960;1253;60870;-80
2023/12/17 09:02:36;;;;;;;45.00;21.50;;;;;;;;;;107002;1251;59805;-80
2023/12/17 09:05:02;;;;;;;36.40;15.40;;;;;;;;;;106905;1253;61800;-80
2023/12/17 09:07:29;;;;;;;47.40;19.90;;;;;;;;;;106929;1253;59781;-80
2023/12/17 09:09:55;;;;;;;87.80;36.50;;;;;;;;;;109114;1252;60509;-80
2023/12/17 09:12:22;;;;;;;78.80;32.10;;;;;;;;;;109489;1251;59260;-80
2023/12/17 09:14:49;;;;;;;61.10;27.20;;;;;;;;;;109522;1252;59099;-81
2023/12/17 09:17:15;;;;;;;70.80;32.10;;;;;;;;;;109512;1252;61949;-80
2023/12/17 09:19:42;;;;;;;38.40;20.80;;;;;;;;;;109504;1252;59035;-80
2023/12/17 09:22:08;;;;;;;30.30;18.20;;;;;;;;;;109501;1251;58992;-80
2023/12/17 09:24:35;;;;;;;25.00;14.90;;;;;;;;;;109541;1251;58924;-80
2023/12/17 09:27:04;;;;;;;22.60;12.10;;;;;;;;;;109569;1251;59001;-80
2023/12/17 09:29:31;;;;;;;28.10;15.20;;;;;;;;;;109605;1250;60708;-80
2023/12/17 09:31:57;;;;;;;58.30;30.00;;;;;;;;;;109594;1251;59158;-80
2023/12/17 09:34:23;;;;;;;30.00;16.80;;;;;;;;;;109564;1251;58926;-80
2023/12/17 09:36:50;;;;;;;27.90;18.70;;;;;;;;;;109581;1250;58885;-80
2023/12/17 09:39:17;;;;;;;19.60;13.40;;;;;;;;;;107546;1253;59862;-80
2023/12/17 09:41:43;;;;;;;21.30;11.70;;;;;;;;;;106978;1251;60049;-81
2023/12/17 09:44:10;;;;;;;26.70;15.80;;;;;;;;;;106948;1253;60861;-80
2023/12/17 09:46:36;;;;;;;28.80;15.20;;;;;;;;;;106984;1251;60966;-80
2023/12/17 09:49:03;;;;;;;28.50;18.40;;;;;;;;;;106985;1251;59796;-80
2023/12/17 09:51:30;;;;;;;27.50;16.50;;;;;;;;;;107020;1251;60795;-80
2023/12/17 09:53:57;;;;;;;33.10;17.00;;;;;;;;;;106948;1251;59887;-81
2023/12/17 09:56:24;;;;;;;24.10;15.90;;;;;;;;;;107032;1251;59863;-80
2023/12/17 09:58:50;;;;;;;31.60;21.40;;;;;;;;;;106938;1253;61006;-80
2023/12/17 10:01:17;;;;;;;28.10;18.10;;;;;;;;;;106957;1251;60794;-80
2023/12/17 10:03:43;;;;;;;29.90;18.40;;;;;;;;;;106948;1251;59440;-80
2023/12/17 10:06:09;;;;;;;29.70;17.50;;;;;;;;;;106916;1253;59814;-80
2023/12/17 10:08:36;;;;;;;26.60;14.20;;;;;;;;;;106818;1251;59540;-79
2023/12/17 10:11:03;;;;;;;30.50;17.90;;;;;;;;;;106941;1251;61373;-80
2023/12/17 10:13:29;;;;;;;21.70;14.40;;;;;;;;;;106948;1252;59747;-80
2023/12/17 10:15:56;;;;;;;19.70;13.20;;;;;;;;;;106984;1253;59234;-80
2023/12/17 10:18:22;;;;;;;18.30;11.50;;;;;;;;;;106902;1252;59748;-80
2023/12/17 10:20:49;;;;;;;20.80;13.10;;;;;;;;;;107108;1251;59833;-81
2023/12/17 10:23:15;;;;;;;23.30;14.40;;;;;;;;;;106984;1251;59875;-81
2023/12/17 10:25:42;;;;;;;18.60;11.80;;;;;;;;;;107001;1251;61003;-80
2023/12/17 10:28:12;;;;;;;18.30;10.50;;;;;;;;;;106986;1250;59812;-80
2023/12/17 10:30:39;;;;;;;21.40;12.40;;;;;;;;;;106955;1251;62454;-80
2023/12/17 10:33:09;;;;;;;29.00;16.10;;;;;;;;;;106952;1251;61404;-80
2023/12/17 10:35:36;;;;;;;25.10;15.20;;;;;;;;;;107071;1251;60886;-80
2023/12/17 10:38:05;;;;;;;21.50;13.20;;;;;;;;;;106992;1251;61024;-80
2023/12/17 10:40:33;;;;;;;17.10;11.60;;;;;;;;;;106985;1251;60791;-80
2023/12/17 10:42:59;;;;;;;18.10;11.20;;;;;;;;;;107008;1251;61931;-81
2023/12/17 10:45:25;;;;;;;16.00;10.00;;;;;;;;;;106965;1251;59809;-80
2023/12/17 10:47:53;;;;;;;15.00;9.00;;;;;;;;;;106981;1251;59823;-80
2023/12/17 10:50:19;;;;;;;12.30;8.80;;;;;;;;;;109539;1251;58869;-80
2023/12/17 10:52:47;;;;;;;11.50;7.90;;;;;;;;;;109576;1251;58906;-81
2023/12/17 10:55:14;;;;;;;12.90;7.80;;;;;;;;;;109578;1250;60467;-82
2023/12/17 10:57:41;;;;;;;12.30;5.90;;;;;;;;;;109542;1251;58956;-81
2023/12/17 11:00:08;;;;;;;12.70;8.20;;;;;;;;;;109425;1252;59954;-81
2023/12/17 11:02:34;;;;;;;15.10;9.30;;;;;;;;;;109507;1251;59115;-81
2023/12/17 11:05:01;;;;;;;16.70;8.70;;;;;;;;;;109509;1251;58851;-81
2023/12/17 11:07:29;;;;;;;14.20;7.60;;;;;;;;;;109484;1251;60431;-80
2023/12/17 11:09:56;;;;;;;7.80;4.10;;;;;;;;;;109482;1252;59156;-81
2023/12/17 11:12:23;;;;;;;13.70;8.50;;;;;;;;;;109461;1251;59719;-81
2023/12/17 11:14:49;;;;;;;11.30;7.40;;;;;;;;;;109448;1251;58905;-81
2023/12/17 11:17:16;;;;;;;13.20;8.00;;;;;;;;;;109491;1251;59124;-81
2023/12/17 11:19:54;;;;;;;11.30;6.50;;;;;;;;;;109487;1251;60414;-80
2023/12/17 11:22:22;;;;;;;16.10;9.60;;;;;;;;;;109550;1251;59721;-80
2023/12/17 11:24:49;;;;;;;19.60;9.10;;;;;;;;;;109531;1251;59905;-80
2023/12/17 11:27:22;;;;;;;19.70;12.60;;;;;;;;;;109546;1250;59093;-80
2023/12/17 11:29:49;;;;;;;25.80;13.80;;;;;;;;;;109580;1251;58849;-80
2023/12/17 11:32:19;;;;;;;16.10;7.70;;;;;;;;;;109551;1255;61941;-80
2023/12/17 11:34:49;;;;;;;19.60;12.30;;;;;;;;;;109551;1252;58992;-80
2023/12/17 11:37:19;;;;;;;22.20;12.50;;;;;;;;;;109607;1251;58928;-80
2023/12/17 11:39:47;;;;;;;19.50;12.10;;;;;;;;;;108805;1251;59761;-80
2023/12/17 11:42:14;;;;;;;15.40;9.40;;;;;;;;;;106999;1251;59866;-81
2023/12/17 11:44:44;;;;;;;19.30;9.40;;;;;;;;;;109590;1251;60480;-80
2023/12/17 11:47:11;;;;;;;12.80;8.00;;;;;;;;;;109221;1250;59563;-80
2023/12/17 11:49:38;;;;;;;17.00;9.20;;;;;;;;;;107033;1251;60476;-80
2023/12/17 11:52:12;;;;;;;15.10;9.30;;;;;;;;;;106985;1251;59933;-80
2023/12/17 11:54:38;;;;;;;18.40;11.30;;;;;;;;;;107012;1251;59148;-80
2023/12/17 11:57:16;;;;;;;18.40;11.50;;;;;;;;;;107017;1251;59844;-81
2023/12/17 11:59:42;;;;;;;15.10;10.90;;;;;;;;;;106932;1253;59838;-80
2023/12/17 12:02:09;;;;;;;17.20;9.50;;;;;;;;;;108068;1253;59758;-80
2023/12/17 12:04:41;;;;;;;11.90;7.80;;;;;;;;;;109460;1251;58935;-81
2023/12/17 12:07:08;;;;;;;15.00;9.90;;;;;;;;;;109464;1251;58895;-81
2023/12/17 12:09:34;;;;;;;10.60;7.60;;;;;;;;;;109503;1253;60612;-81
2023/12/17 12:12:01;;;;;;;9.50;5.90;;;;;;;;;;109503;1252;59049;-80
2023/12/17 12:14:27;;;;;;;10.10;7.30;;;;;;;;;;109463;1252;59146;-80
2023/12/17 12:16:55;;;;;;;10.30;6.60;;;;;;;;;;109486;1251;58890;-80
2023/12/17 12:19:22;;;;;;;14.80;7.20;;;;;;;;;;109023;1251;59767;-80
2023/12/17 12:21:49;;;;;;;13.00;8.40;;;;;;;;;;107527;1251;59354;-80
2023/12/17 12:24:19;;;;;;;22.30;11.10;;;;;;;;;;107557;1251;61465;-81
2023/12/17 12:26:45;;;;;;;28.50;14.00;;;;;;;;;;107573;1250;60257;-80
2023/12/17 12:29:12;;;;;;;47.00;20.80;;;;;;;;;;107572;1252;59670;-80
2023/12/17 12:31:39;;;;;;;19.10;12.10;;;;;;;;;;107584;1251;59889;-80
2023/12/17 12:34:05;;;;;;;11.90;8.60;;;;;;;;;;107602;1251;59904;-80
2023/12/17 12:36:42;;;;;;;43.20;21.90;;;;;;;;;;107536;1251;59792;-80
2023/12/17 12:39:09;;;;;;;32.90;15.80;;;;;;;;;;107561;1251;61334;-80
2023/12/17 12:41:36;;;;;;;20.20;11.90;;;;;;;;;;107523;1251;59815;-81
2023/12/17 12:44:03;;;;;;;59.20;26.50;;;;;;;;;;107595;1251;59685;-81
2023/12/17 12:46:29;;;;;;;27.70;15.70;;;;;;;;;;107529;1251;59725;-80
2023/12/17 12:48:56;;;;;;;33.10;17.00;;;;;;;;;;107528;1253;60868;-80
2023/12/17 12:51:23;;;;;;;31.80;16.30;;;;;;;;;;107520;1251;60783;-80
2023/12/17 12:53:49;;;;;;;42.80;21.20;;;;;;;;;;107489;1251;59776;-80
2023/12/17 12:56:16;;;;;;;38.20;22.20;;;;;;;;;;107586;1251;59844;-80
2023/12/17 12:58:43;;;;;;;37.00;21.60;;;;;;;;;;107578;1251;59826;-80
2023/12/17 13:01:10;;;;;;;32.70;16.60;;;;;;;;;;107565;1251;59840;-81
2023/12/17 13:03:37;;;;;;;26.10;16.40;;;;;;;;;;107635;1251;59895;-81
2023/12/17 13:06:04;;;;;;;26.50;15.40;;;;;;;;;;107606;1251;59797;-80
2023/12/17 13:08:30;;;;;;;22.00;12.70;;;;;;;;;;107637;1251;59784;-80
2023/12/17 13:10:57;;;;;;;17.60;11.00;;;;;;;;;;107587;1250;59767;-81
2023/12/17 13:13:23;;;;;;;14.50;8.60;;;;;;;;;;107579;1251;59915;-80
2023/12/17 13:15:50;;;;;;;34.80;18.80;;;;;;;;;;107603;1253;60933;-80
2023/12/17 13:18:16;;;;;;;20.90;11.80;;;;;;;;;;107602;1251;59893;-81
2023/12/17 13:20:43;;;;;;;15.60;10.10;;;;;;;;;;107677;1251;59799;-80
2023/12/17 13:23:09;;;;;;;16.30;9.50;;;;;;;;;;107561;1251;59725;-81
2023/12/17 13:25:36;;;;;;;35.10;19.00;;;;;;;;;;107579;1253;59809;-81
2023/12/17 13:28:02;;;;;;;19.60;11.90;;;;;;;;;;107541;1250;60483;-80
2023/12/17 13:30:29;;;;;;;15.50;9.90;;;;;;;;;;107656;1252;59851;-80
2023/12/17 13:33:02;;;;;;;22.60;11.50;;;;;;;;;;107538;1251;59138;-80
2023/12/17 13:35:28;;;;;;;24.50;13.00;;;;;;;;;;107565;1250;62577;-80
2023/12/17 13:37:55;;;;;;;86.20;33.80;;;;;;;;;;107608;1251;60833;-80
2023/12/17 13:40:21;;;;;;;25.20;13.20;;;;;;;;;;107435;1251;61933;-81
2023/12/17 13:42:50;;;;;;;25.10;14.90;;;;;;;;;;107064;1251;59866;-80
2023/12/17 13:45:17;;;;;;;51.40;24.80;;;;;;;;;;107021;1251;59899;-80
2023/12/17 13:47:43;;;;;;;113.50;39.50;;;;;;;;;;106986;1251;62439;-80
2023/12/17 13:50:10;;;;;;;90.20;38.50;;;;;;;;;;107018;1254;59728;-80
2023/12/17 13:52:37;;;;;;;270.00;110.90;;;;;;;;;;107054;1253;60885;-80
2023/12/17 13:55:05;;;;;;;332.40;137.50;;;;;;;;;;107001;1250;60720;-81
2023/12/17 13:57:32;;;;;;;505.30;219.20;;;;;;;;;;107029;1252;60725;-80
2023/12/17 13:59:59;;;;;;;500.80;237.60;;;;;;;;;;106885;1252;61684;-80
2023/12/17 14:02:27;;;;;;;525.80;272.00;;;;;;;;;;106895;1253;59835;-80
2023/12/17 14:04:54;;;;;;;255.00;129.90;;;;;;;;;;106908;1253;60727;-81